createdAt,value
2019-06-20T00:02:10.612Z,24.73
2019-06-20T00:04:41.333Z,24.78
2019-06-20T00:07:12.083Z,24.74
2019-06-20T00:09:42.937Z,24.72
2019-06-20T00:12:13.690Z,24.75
2019-06-20T00:14:47.347Z,24.71
2019-06-20T00:17:18.267Z,24.82
2019-06-20T00:19:49.024Z,24.70
2019-06-20T00:22:21.408Z,24.70
2019-06-20T00:24:52.460Z,24.66
2019-06-20T00:27:23.279Z,24.63
2019-06-20T00:29:54.315Z,24.59
2019-06-20T00:32:25.052Z,24.63
2019-06-20T00:34:56.002Z,24.64
2019-06-20T00:37:26.809Z,24.69
2019-06-20T00:39:57.563Z,24.56
2019-06-20T00:42:28.466Z,24.54
2019-06-20T00:44:58.885Z,24.62
2019-06-20T00:47:29.564Z,24.52
2019-06-20T00:50:00.397Z,24.54
2019-06-20T00:52:31.223Z,24.59
2019-06-20T00:55:01.724Z,24.56
2019-06-20T00:57:32.190Z,24.71
2019-06-20T01:00:03.542Z,24.60
2019-06-20T01:02:34.377Z,24.39
2019-06-20T01:05:06.749Z,24.41
2019-06-20T01:07:37.477Z,24.22
2019-06-20T01:10:09.383Z,24.14
2019-06-20T01:12:40.195Z,23.86
2019-06-20T01:15:11.127Z,23.81
2019-06-20T01:17:41.969Z,23.65
2019-06-20T01:20:13.934Z,23.62
2019-06-20T01:22:44.353Z,23.15
2019-06-20T01:25:15.383Z,22.74
2019-06-20T01:27:46.207Z,22.45
2019-06-20T01:30:16.941Z,22.30
2019-06-20T01:32:47.701Z,22.42
2019-06-20T01:35:18.639Z,22.32
2019-06-20T01:37:49.371Z,22.21
2019-06-20T01:40:20.207Z,22.09
2019-06-20T01:42:50.717Z,21.96
2019-06-20T01:45:21.572Z,21.78
2019-06-20T01:47:52.602Z,21.74
2019-06-20T01:50:23.513Z,21.66
2019-06-20T01:52:54.274Z,21.65
2019-06-20T01:55:25.209Z,21.65
2019-06-20T01:57:55.946Z,21.69
2019-06-20T02:00:47.969Z,21.69
2019-06-20T02:03:19.038Z,21.74
2019-06-20T02:05:49.852Z,21.52
2019-06-20T02:08:20.913Z,21.70
2019-06-20T02:10:51.719Z,21.46
2019-06-20T02:13:22.587Z,21.44
2019-06-20T02:15:53.050Z,21.32
2019-06-20T02:18:23.855Z,21.44
2019-06-20T02:20:58.222Z,21.33
2019-06-20T02:23:29.110Z,21.42
2019-06-20T02:25:59.597Z,21.49
2019-06-20T02:28:30.101Z,21.42
2019-06-20T02:31:00.563Z,21.24
2019-06-20T02:33:31.229Z,21.28
2019-06-20T02:36:01.725Z,21.30
2019-06-20T02:38:32.585Z,21.21
2019-06-20T02:41:03.076Z,21.28
2019-06-20T02:43:33.517Z,21.27
2019-06-20T02:46:04.063Z,21.24
2019-06-20T02:48:34.901Z,21.33
2019-06-20T02:51:05.753Z,21.32
2019-06-20T02:53:37.107Z,21.27
2019-06-20T02:56:07.830Z,21.15
2019-06-20T02:58:38.263Z,21.14
2019-06-20T03:01:09.097Z,21.13
2019-06-20T03:03:40.223Z,21.13
2019-06-20T03:06:10.979Z,21.12
2019-06-20T03:08:41.722Z,21.07
2019-06-20T03:11:12.533Z,21.05
2019-06-20T03:13:43.379Z,20.88
2019-06-20T03:16:14.223Z,20.88
2019-06-20T03:18:44.954Z,20.89
2019-06-20T03:21:15.415Z,20.91
2019-06-20T03:23:46.246Z,20.82
2019-06-20T03:26:17.599Z,20.88
2019-06-20T03:28:48.563Z,20.88
2019-06-20T03:31:19.011Z,20.94
2019-06-20T03:33:49.801Z,20.95
2019-06-20T03:36:20.619Z,20.96
2019-06-20T03:38:51.987Z,21.06
2019-06-20T03:41:22.435Z,21.06
2019-06-20T03:43:52.815Z,21.19
2019-06-20T03:46:23.531Z,21.21
2019-06-20T03:48:54.370Z,21.12
2019-06-20T03:51:25.223Z,21.20
2019-06-20T03:53:55.937Z,21.28
2019-06-20T03:56:26.438Z,21.31
2019-06-20T03:58:56.825Z,21.38
2019-06-20T04:01:27.646Z,21.35
2019-06-20T04:03:58.007Z,21.32
2019-06-20T04:06:28.697Z,21.27
2019-06-20T04:08:59.154Z,21.42
2019-06-20T04:11:29.869Z,21.52
2019-06-20T04:14:00.617Z,21.50
2019-06-20T04:16:31.393Z,21.62
2019-06-20T04:19:01.826Z,21.66
2019-06-20T04:21:32.307Z,21.79
2019-06-20T04:24:02.694Z,21.76
2019-06-20T04:26:33.899Z,21.90
2019-06-20T04:29:04.704Z,21.90
2019-06-20T04:31:35.527Z,21.98
2019-06-20T04:34:06.383Z,21.98
2019-06-20T04:36:37.201Z,22.03
2019-06-20T04:39:18.783Z,21.98
2019-06-20T04:41:40.365Z,22.01
2019-06-20T04:44:11.144Z,22.09
2019-06-20T04:46:43.726Z,22.24
2019-06-20T04:49:14.569Z,22.43
2019-06-20T04:51:45.291Z,22.66
2019-06-20T04:54:16.043Z,22.84
2019-06-20T04:56:46.433Z,23.05
2019-06-20T04:59:17.183Z,23.22
2019-06-20T05:01:48.076Z,23.15
2019-06-20T05:04:18.910Z,23.32
2019-06-20T05:06:52.912Z,23.62
2019-06-20T05:09:23.780Z,23.72
2019-06-20T05:11:54.239Z,24.06
2019-06-20T05:14:24.623Z,24.24
2019-06-20T05:16:55.054Z,24.60
2019-06-20T05:19:25.550Z,24.88
2019-06-20T05:21:55.977Z,25.06
2019-06-20T05:24:26.739Z,25.06
2019-06-20T05:26:57.541Z,24.85
2019-06-20T05:30:07.449Z,24.80
2019-06-20T05:32:38.251Z,24.70
2019-06-20T05:35:09.191Z,24.73
2019-06-20T05:37:40.123Z,24.32
2019-06-20T05:40:10.987Z,24.33
2019-06-20T05:42:41.691Z,24.21
2019-06-20T05:45:12.595Z,24.02
2019-06-20T05:47:43.528Z,24.14
2019-06-20T05:50:14.391Z,24.06
2019-06-20T05:52:44.783Z,24.07
2019-06-20T05:55:15.757Z,24.23
2019-06-20T05:57:46.500Z,24.29
2019-06-20T06:00:17.364Z,24.23
2019-06-20T06:02:47.917Z,24.24
2019-06-20T06:05:19.394Z,24.15
2019-06-20T06:07:50.255Z,24.18
2019-06-20T06:10:20.779Z,24.18
2019-06-20T06:12:51.646Z,24.15
2019-06-20T06:15:22.629Z,24.16
2019-06-20T06:17:53.086Z,24.15
2019-06-20T06:20:24.145Z,24.06
2019-06-20T06:22:54.945Z,23.92
2019-06-20T06:25:25.364Z,23.98
2019-06-20T06:27:55.831Z,23.64
2019-06-20T06:30:26.847Z,22.70
2019-06-20T06:32:57.610Z,22.01
2019-06-20T06:35:28.431Z,21.61
2019-06-20T06:37:58.960Z,20.84
2019-06-20T06:40:29.800Z,20.71
2019-06-20T06:43:00.678Z,20.35
2019-06-20T06:45:31.479Z,20.15
2019-06-20T06:48:02.421Z,20.04
2019-06-20T06:50:37.057Z,20.05
2019-06-20T06:53:32.187Z,19.94
2019-06-20T06:56:02.681Z,19.96
2019-06-20T06:58:33.419Z,19.90
2019-06-20T07:01:05.426Z,20.03
2019-06-20T07:03:54.732Z,20.15
2019-06-20T07:06:31.497Z,20.10
2019-06-20T07:09:02.360Z,20.12
2019-06-20T07:11:33.632Z,20.12
2019-06-20T07:14:08.320Z,20.23
2019-06-20T07:16:40.609Z,20.25
2019-06-20T07:19:11.000Z,20.41
2019-06-20T07:21:41.773Z,20.55
2019-06-20T07:24:12.589Z,20.76
2019-06-20T07:26:43.631Z,21.00
2019-06-20T07:29:14.466Z,21.19
2019-06-20T07:31:45.307Z,21.30
2019-06-20T07:34:16.416Z,21.44
2019-06-20T07:36:47.332Z,21.60
2019-06-20T07:39:18.031Z,21.66
2019-06-20T07:41:51.045Z,21.74
2019-06-20T07:44:21.640Z,21.80
2019-06-20T07:46:52.689Z,21.76
2019-06-20T07:49:23.524Z,21.77
2019-06-20T07:51:55.557Z,21.71
2019-06-20T07:54:28.347Z,21.76
2019-06-20T07:57:00.323Z,21.95
2019-06-20T07:59:35.287Z,22.01
2019-06-20T08:02:05.913Z,21.88
2019-06-20T08:04:36.368Z,21.98
2019-06-20T08:07:07.034Z,21.98
2019-06-20T08:09:44.784Z,22.08
2019-06-20T08:12:10.217Z,22.21
2019-06-20T08:14:41.060Z,22.32
2019-06-20T08:17:12.056Z,22.53
2019-06-20T08:19:42.890Z,22.77
2019-06-20T08:22:13.728Z,22.82
2019-06-20T08:24:44.776Z,22.84
2019-06-20T08:27:15.463Z,22.86
2019-06-20T08:29:46.420Z,22.88
2019-06-20T08:32:20.703Z,22.98
2019-06-20T08:34:51.525Z,22.78
2019-06-20T08:37:22.573Z,22.57
2019-06-20T08:39:53.604Z,22.50
2019-06-20T08:42:24.425Z,22.62
2019-06-20T08:44:56.229Z,22.72
2019-06-20T08:47:26.967Z,22.83
2019-06-20T08:50:03.855Z,23.04
2019-06-20T08:52:34.993Z,22.98
2019-06-20T08:55:07.252Z,22.92
2019-06-20T08:57:37.823Z,22.77
2019-06-20T09:00:20.672Z,22.68
2019-06-20T09:02:51.599Z,22.81
2019-06-20T09:05:23.410Z,22.92
2019-06-20T09:07:55.359Z,22.90
2019-06-20T09:10:33.865Z,22.84
2019-06-20T09:13:05.013Z,22.86
2019-06-20T09:15:36.319Z,22.80
2019-06-20T09:18:08.128Z,22.45
2019-06-20T09:20:39.129Z,22.18
2019-06-20T09:23:16.330Z,22.27
2019-06-20T09:25:47.165Z,22.26
2019-06-20T09:28:18.000Z,22.38
2019-06-20T09:30:49.045Z,22.42
2019-06-20T09:33:19.875Z,22.87
2019-06-20T09:35:52.150Z,23.14
2019-06-20T09:38:24.423Z,23.28
2019-06-20T09:40:55.351Z,23.36
2019-06-20T09:43:27.867Z,23.59
2019-06-20T09:45:58.453Z,23.51
2019-06-20T09:48:29.193Z,23.65
2019-06-20T09:50:59.958Z,23.74
2019-06-20T09:53:30.502Z,23.66
2019-06-20T09:56:01.235Z,23.84
2019-06-20T09:58:32.118Z,24.07
2019-06-20T10:01:04.870Z,24.16
2019-06-20T10:03:35.635Z,24.40
2019-06-20T10:06:13.771Z,24.48
2019-06-20T10:08:38.950Z,24.58
2019-06-20T10:11:09.327Z,24.59
2019-06-20T10:13:40.115Z,24.74
2019-06-20T10:16:10.915Z,24.54
2019-06-20T10:18:41.681Z,24.76
2019-06-20T10:21:12.415Z,24.52
2019-06-20T10:23:43.372Z,24.59
2019-06-20T10:26:14.088Z,24.43
2019-06-20T10:28:45.813Z,24.36
2019-06-20T10:31:16.933Z,24.33
2019-06-20T10:33:48.440Z,24.23
2019-06-20T10:36:19.150Z,23.96
2019-06-20T10:38:50.374Z,23.90
2019-06-20T10:41:21.344Z,23.98
2019-06-20T10:43:51.909Z,24.01
2019-06-20T10:46:22.760Z,24.13
2019-06-20T10:48:56.649Z,24.30
2019-06-20T10:51:49.632Z,24.50
2019-06-20T10:54:10.728Z,24.68
2019-06-20T10:56:42.252Z,24.80
2019-06-20T10:59:14.319Z,25.18
2019-06-20T11:01:46.525Z,25.43
2019-06-20T11:04:19.127Z,25.61
2019-06-20T11:06:50.034Z,25.63
2019-06-20T11:09:20.873Z,25.49
2019-06-20T11:11:51.631Z,25.21
2019-06-20T11:14:22.533Z,25.08
2019-06-20T11:16:53.065Z,25.14
2019-06-20T11:19:23.597Z,25.13
2019-06-20T11:21:54.560Z,25.13
2019-06-20T11:24:25.555Z,25.21
2019-06-20T11:26:56.094Z,25.13
2019-06-20T11:29:26.951Z,24.88
2019-06-20T11:31:57.759Z,24.96
2019-06-20T11:34:28.591Z,25.09
2019-06-20T11:36:59.353Z,25.18
2019-06-20T11:39:30.284Z,25.19
2019-06-20T11:42:02.530Z,25.20
2019-06-20T11:44:35.381Z,25.32
2019-06-20T11:47:07.299Z,25.22
2019-06-20T11:49:40.464Z,25.21
2019-06-20T11:52:11.229Z,25.27
2019-06-20T11:54:42.512Z,25.40
2019-06-20T11:57:13.413Z,25.54
2019-06-20T11:59:43.926Z,25.54
2019-06-20T12:02:17.111Z,25.78
2019-06-20T12:04:49.524Z,25.75
2019-06-20T12:07:20.438Z,26.00
2019-06-20T12:09:51.271Z,26.09
2019-06-20T12:12:21.842Z,26.17
2019-06-20T12:14:52.882Z,26.15
2019-06-20T12:17:23.684Z,26.28
2019-06-20T12:19:54.469Z,26.36
2019-06-20T12:22:25.257Z,26.56
2019-06-20T12:24:55.715Z,26.62
2019-06-20T12:27:32.216Z,26.53
2019-06-20T12:30:05.285Z,26.41
2019-06-20T12:32:36.191Z,26.43
2019-06-20T12:35:07.303Z,26.42
2019-06-20T12:37:40.356Z,26.36
2019-06-20T12:40:11.499Z,26.05
2019-06-20T12:42:43.187Z,26.42
2019-06-20T12:45:17.413Z,26.40
2019-06-20T12:47:47.844Z,26.45
2019-06-20T12:50:18.625Z,26.58
2019-06-20T12:52:49.670Z,26.40
2019-06-20T12:55:22.580Z,26.20
2019-06-20T12:57:53.460Z,26.32
2019-06-20T13:00:24.523Z,26.44
2019-06-20T13:02:55.333Z,26.34
2019-06-20T13:05:28.590Z,26.45
2019-06-20T13:07:59.419Z,26.46
2019-06-20T13:10:29.875Z,26.54
2019-06-20T13:13:00.764Z,26.58
2019-06-20T13:15:31.194Z,26.54
2019-06-20T13:18:02.026Z,26.30
2019-06-20T13:20:32.534Z,26.09
2019-06-20T13:23:03.572Z,26.00
2019-06-20T13:25:33.950Z,26.01
2019-06-20T13:28:04.940Z,25.97
2019-06-20T13:30:35.758Z,25.85
2019-06-20T13:33:06.257Z,25.82
2019-06-20T13:35:37.035Z,25.86
2019-06-20T13:38:07.455Z,25.67
2019-06-20T13:40:39.586Z,25.82
2019-06-20T13:43:09.940Z,25.70
2019-06-20T13:45:42.229Z,25.58
2019-06-20T13:48:13.355Z,25.53
2019-06-20T13:50:45.269Z,25.23
2019-06-20T13:53:16.532Z,25.30
2019-06-20T13:55:47.755Z,25.24
2019-06-20T13:58:19.461Z,25.14
2019-06-20T14:00:51.006Z,24.99
2019-06-20T14:03:21.755Z,24.72
2019-06-20T14:05:53.686Z,24.52
2019-06-20T14:08:25.279Z,24.39
2019-06-20T14:10:56.607Z,24.58
2019-06-20T14:13:27.095Z,24.68
2019-06-20T14:15:57.571Z,24.93
2019-06-20T14:18:30.387Z,25.09
2019-06-20T14:21:01.431Z,25.20
2019-06-20T14:23:31.891Z,25.19
2019-06-20T14:26:02.650Z,25.20
2019-06-20T14:28:33.544Z,25.14
2019-06-20T14:31:04.392Z,25.13
2019-06-20T14:33:35.097Z,24.92
2019-06-20T14:36:05.934Z,24.89
2019-06-20T14:38:36.393Z,24.83
2019-06-20T14:41:07.203Z,24.73
2019-06-20T14:43:38.037Z,24.70
2019-06-20T14:46:08.568Z,24.49
2019-06-20T14:48:39.105Z,24.56
2019-06-20T14:51:10.447Z,24.49
2019-06-20T14:53:41.324Z,24.48
2019-06-20T14:56:12.238Z,24.55
2019-06-20T14:58:44.768Z,24.68
2019-06-20T15:01:15.702Z,24.73
2019-06-20T15:03:47.403Z,24.74
2019-06-20T15:06:20.005Z,24.71
2019-06-20T15:08:53.573Z,25.30
2019-06-20T15:11:23.584Z,25.40
2019-06-20T15:13:56.765Z,25.42
2019-06-20T15:16:27.637Z,25.53
2019-06-20T15:18:58.144Z,25.46
2019-06-20T15:21:29.006Z,25.41
2019-06-20T15:23:59.510Z,25.42
2019-06-20T15:26:30.522Z,25.44
2019-06-20T15:29:01.321Z,25.35
2019-06-20T15:31:32.146Z,25.32
2019-06-20T15:34:02.726Z,25.18
2019-06-20T15:36:33.605Z,25.07
2019-06-20T15:39:06.440Z,25.05
2019-06-20T15:41:37.457Z,24.92
2019-06-20T15:44:09.471Z,24.97
2019-06-20T15:46:40.378Z,25.04
2019-06-20T15:49:16.044Z,25.06
2019-06-20T15:51:43.333Z,25.16
2019-06-20T15:54:14.170Z,25.03
2019-06-20T15:56:44.909Z,25.11
2019-06-20T15:59:15.738Z,25.09
2019-06-20T16:01:46.673Z,25.24
2019-06-20T16:04:17.504Z,25.42
2019-06-20T16:06:48.593Z,25.33
2019-06-20T16:09:19.765Z,25.29
2019-06-20T16:11:50.744Z,25.34
2019-06-20T16:14:21.603Z,25.48
2019-06-20T16:16:52.093Z,25.60
2019-06-20T16:19:22.958Z,25.74
2019-06-20T16:21:53.439Z,25.69
2019-06-20T16:24:24.257Z,25.65
2019-06-20T16:26:55.322Z,25.73
2019-06-20T16:29:26.197Z,25.73
2019-06-20T16:31:57.020Z,25.73
2019-06-20T16:34:27.482Z,25.84
2019-06-20T16:37:09.819Z,25.60
2019-06-20T16:39:30.390Z,25.75
2019-06-20T16:42:00.804Z,26.54
2019-06-20T16:44:31.547Z,27.36
2019-06-20T16:47:02.354Z,26.92
2019-06-20T16:49:33.250Z,26.66
2019-06-20T16:52:03.697Z,27.80
2019-06-20T16:54:34.498Z,28.22
2019-06-20T16:57:05.387Z,28.92
2019-06-20T16:59:36.331Z,29.49
2019-06-20T17:02:07.171Z,30.17
2019-06-20T17:04:37.693Z,30.66
2019-06-20T17:07:08.192Z,30.60
2019-06-20T17:09:38.678Z,29.99
2019-06-20T17:15:58.981Z,28.23
2019-06-20T17:18:30.067Z,27.75
2019-06-20T17:21:00.955Z,27.65
2019-06-20T17:23:31.895Z,27.71
2019-06-20T17:26:02.693Z,27.45
2019-06-20T17:28:33.133Z,27.58
2019-06-20T17:31:03.578Z,27.38
2019-06-20T17:33:34.315Z,27.36
2019-06-20T17:36:17.989Z,27.14
2019-06-20T17:38:37.358Z,26.58
2019-06-20T17:41:08.152Z,26.31
2019-06-20T17:43:38.926Z,26.50
2019-06-20T17:46:09.760Z,26.52
2019-06-20T17:48:40.315Z,26.55
2019-06-20T17:51:10.784Z,26.66
2019-06-20T17:53:41.516Z,26.80
2019-06-20T17:56:12.387Z,26.84
2019-06-20T17:58:42.840Z,26.84
2019-06-20T18:01:13.645Z,26.75
2019-06-20T18:03:44.470Z,26.75
2019-06-20T18:06:17.098Z,26.72
2019-06-20T18:08:47.933Z,26.61
2019-06-20T18:11:18.714Z,26.58
2019-06-20T18:13:49.544Z,26.54
2019-06-20T18:16:25.212Z,26.43
2019-06-20T18:18:52.607Z,26.48
2019-06-20T18:21:23.166Z,26.44
2019-06-20T18:23:53.864Z,26.33
2019-06-20T18:26:24.745Z,26.14
2019-06-20T18:28:55.485Z,26.07
2019-06-20T18:31:26.238Z,26.01
2019-06-20T18:33:56.641Z,25.88
2019-06-20T18:36:27.093Z,25.84
2019-06-20T18:38:57.531Z,25.79
2019-06-20T18:41:28.058Z,25.72
2019-06-20T18:43:58.786Z,25.58
2019-06-20T18:46:29.624Z,25.54
2019-06-20T18:49:00.560Z,25.47
2019-06-20T18:51:31.086Z,25.41
2019-06-20T18:54:01.964Z,25.38
2019-06-20T18:56:32.926Z,25.36
2019-06-20T18:59:04.283Z,25.40
2019-06-20T19:01:35.190Z,25.36
2019-06-20T19:04:06.096Z,25.36
2019-06-20T19:06:36.824Z,25.37
2019-06-20T19:09:10.651Z,25.37
2019-06-20T19:11:41.646Z,25.32
2019-06-20T19:14:12.841Z,25.32
2019-06-20T19:16:43.958Z,25.33
2019-06-20T19:19:14.817Z,25.34
2019-06-20T19:21:45.339Z,25.26
2019-06-20T19:24:15.759Z,25.17
2019-06-20T19:26:48.083Z,25.26
2019-06-20T19:29:19.308Z,25.18
2019-06-20T19:31:49.766Z,25.29
2019-06-20T19:34:20.638Z,25.28
2019-06-20T19:36:51.086Z,25.24
2019-06-20T19:39:21.920Z,25.02
2019-06-20T19:41:52.364Z,24.86
2019-06-20T19:44:23.194Z,24.92
2019-06-20T19:46:54.157Z,24.78
2019-06-20T19:49:25.068Z,24.72
2019-06-20T19:51:55.977Z,24.84
2019-06-20T19:54:26.816Z,24.82
2019-06-20T19:56:57.578Z,24.84
2019-06-20T19:59:28.503Z,24.70
2019-06-20T20:01:59.316Z,24.74
2019-06-20T20:04:29.905Z,24.80
2019-06-20T20:07:00.796Z,24.73
2019-06-20T20:09:31.558Z,24.64
2019-06-20T20:12:02.305Z,24.71
2019-06-20T20:14:33.230Z,24.46
2019-06-20T20:17:04.084Z,24.40
2019-06-20T20:19:34.992Z,24.48
2019-06-20T20:22:06.698Z,24.47
2019-06-20T20:24:37.780Z,24.45
2019-06-20T20:27:08.228Z,24.52
2019-06-20T20:29:39.052Z,24.48
2019-06-20T20:32:09.811Z,24.48
2019-06-20T20:34:40.484Z,24.54
2019-06-20T20:37:11.307Z,24.58
2019-06-20T20:39:41.796Z,24.70
2019-06-20T20:42:12.317Z,24.52
2019-06-20T20:44:43.129Z,24.48
2019-06-20T20:47:13.743Z,24.47
2019-06-20T20:49:44.398Z,24.52
2019-06-20T20:52:15.766Z,24.46
2019-06-20T20:54:46.688Z,24.42
2019-06-20T20:57:17.967Z,24.41
2019-06-20T20:59:49.184Z,24.38
2019-06-20T21:02:19.645Z,24.34
2019-06-20T21:04:50.448Z,24.24
2019-06-20T21:07:21.288Z,24.14
2019-06-20T21:09:51.920Z,24.13
2019-06-20T21:12:22.439Z,24.04
2019-06-20T21:14:53.393Z,24.08
2019-06-20T21:17:26.834Z,24.02
2019-06-20T21:19:57.577Z,24.00
2019-06-20T21:22:28.381Z,23.85
2019-06-20T21:24:59.504Z,23.80
2019-06-20T21:27:32.275Z,23.81
2019-06-20T21:30:03.417Z,23.90
2019-06-20T21:32:34.300Z,23.90
2019-06-20T21:35:09.734Z,23.77
2019-06-20T21:37:40.532Z,23.79
2019-06-20T21:40:11.318Z,23.83
2019-06-20T21:42:44.621Z,23.84
2019-06-20T21:45:17.056Z,23.90
2019-06-20T21:47:48.615Z,23.92
2019-06-20T21:50:19.550Z,23.94
2019-06-20T21:52:50.902Z,23.90
2019-06-20T21:55:21.735Z,23.87
2019-06-20T21:57:52.995Z,23.82
2019-06-20T22:00:39.959Z,23.81
2019-06-20T22:03:10.955Z,23.80
2019-06-20T22:05:41.408Z,23.78
2019-06-20T22:08:15.880Z,23.79
2019-06-20T22:10:46.538Z,23.84
2019-06-20T22:13:17.390Z,23.88
2019-06-20T22:15:49.678Z,23.86
2019-06-20T22:18:20.523Z,23.85
2019-06-20T22:20:51.314Z,23.80
2019-06-20T22:23:23.663Z,23.73
2019-06-20T22:25:54.317Z,23.74
2019-06-20T22:28:25.140Z,23.68
2019-06-20T22:30:57.218Z,23.69
2019-06-20T22:33:28.965Z,23.69
2019-06-20T22:35:59.706Z,23.62
2019-06-20T22:38:30.493Z,23.56
2019-06-20T22:41:01.314Z,23.44
2019-06-20T22:43:33.406Z,23.46
2019-06-20T22:46:04.423Z,23.43
2019-06-20T22:48:38.576Z,23.36
2019-06-20T22:51:09.447Z,23.32
2019-06-20T22:53:41.494Z,23.34
2019-06-20T22:56:13.878Z,23.25
2019-06-20T22:58:44.747Z,23.08
2019-06-20T23:01:15.366Z,22.96
2019-06-20T23:03:46.284Z,22.82
2019-06-20T23:06:16.686Z,22.72
2019-06-20T23:08:47.859Z,22.79
2019-06-20T23:11:23.525Z,22.96
2019-06-20T23:13:54.438Z,22.92
2019-06-20T23:16:26.338Z,22.95
2019-06-20T23:18:57.280Z,23.07
2019-06-20T23:21:27.874Z,23.14
2019-06-20T23:23:58.609Z,23.11
2019-06-20T23:26:29.427Z,23.07
2019-06-20T23:29:20.336Z,22.90
2019-06-20T23:31:52.220Z,22.93
2019-06-20T23:34:30.224Z,22.96
2019-06-20T23:37:12.200Z,23.02
2019-06-20T23:39:33.325Z,23.05
2019-06-20T23:42:04.158Z,22.90
2019-06-20T23:44:34.890Z,22.85
2019-06-20T23:47:05.505Z,22.70
2019-06-20T23:49:36.364Z,22.58
2019-06-20T23:52:08.758Z,22.59
2019-06-20T23:54:39.302Z,22.55
2019-06-20T23:57:10.134Z,22.52
2019-06-20T23:59:40.963Z,22.47
